sensor_id;sensor_type;location;lat;lon;timestamp;pressure;altitude;pressure_sealevel;temperature;humidity
36600;BME280;35385;55.668;37.508;2022-12-10T00:00:35;-243937.94;;;50.10;0.00
36600;BME280;35385;55.668;37.508;2022-12-10T00:01:36;-243428.88;;;50.17;0.00
36600;BME280;35385;55.668;37.508;2022-12-10T00:02:36;-243321.56;;;50.19;0.00
36600;BME280;35385;55.668;37.508;2022-12-10T00:03:37;-242500.19;;;50.30;100.00
36600;BME280;35385;55.668;37.508;2022-12-10T00:04:37;-242122.88;;;50.35;100.00
36600;BME280;35385;55.668;37.508;2022-12-10T00:05:37;-242628.00;;;50.28;100.00
36600;BME280;35385;55.668;37.508;2022-12-10T00:06:38;-243194.19;;;50.21;0.00
36600;BME280;35385;55.668;37.508;2022-12-10T00:07:39;-243685.88;;;50.14;0.00
36600;BME280;35385;55.668;37.508;2022-12-10T00:08:40;-243390.59;;;50.18;0.00
36600;BME280;35385;55.668;37.508;2022-12-10T00:09:40;-243628.97;;;50.14;0.00
36600;BME280;35385;55.668;37.508;2022-12-10T00:10:40;-244072.16;;;50.08;0.00
36600;BME280;35385;55.668;37.508;2022-12-10T00:11:41;-244366.41;;;50.04;0.00
36600;BME280;35385;55.668;37.508;2022-12-10T00:12:41;-244652.53;;;50.00;0.00
36600;BME280;35385;55.668;37.508;2022-12-10T00:13:42;-244879.94;;;49.96;0.00
36600;BME280;35385;55.668;37.508;2022-12-10T00:14:43;-244857.72;;;49.97;0.00
36600;BME280;35385;55.668;37.508;2022-12-10T00:15:43;-244092.91;;;50.07;0.00
36600;BME280;35385;55.668;37.508;2022-12-10T00:16:44;-243362.53;;;50.18;0.00
36600;BME280;35385;55.668;37.508;2022-12-10T00:17:44;-243312.22;;;50.19;0.00
36600;BME280;35385;55.668;37.508;2022-12-10T00:18:45;-243578.50;;;50.15;0.00
36600;BME280;35385;55.668;37.508;2022-12-10T00:19:45;-243905.50;;;50.10;0.00
36600;BME280;35385;55.668;37.508;2022-12-10T00:20:46;-244486.31;;;50.02;0.00
36600;BME280;35385;55.668;37.508;2022-12-10T00:21:46;-244867.06;;;49.97;0.00
36600;BME280;35385;55.668;37.508;2022-12-10T00:22:46;-245417.44;;;49.89;0.00
36600;BME280;35385;55.668;37.508;2022-12-10T00:23:47;-245869.75;;;49.83;0.00
36600;BME280;35385;55.668;37.508;2022-12-10T00:24:48;-245436.09;;;49.89;0.00
36600;BME280;35385;55.668;37.508;2022-12-10T00:25:48;-244505.03;;;50.02;0.00
36600;BME280;35385;55.668;37.508;2022-12-10T00:26:48;-244099.88;;;50.08;0.00
36600;BME280;35385;55.668;37.508;2022-12-10T00:27:49;-244277.03;;;50.06;0.00
36600;BME280;35385;55.668;37.508;2022-12-10T00:28:50;-244701.47;;;49.99;0.00
36600;BME280;35385;55.668;37.508;2022-12-10T00:29:50;-244946.19;;;49.96;0.00
36600;BME280;35385;55.668;37.508;2022-12-10T00:30:51;-245020.69;;;49.95;0.00
36600;BME280;35385;55.668;37.508;2022-12-10T00:31:51;-244760.63;;;49.99;0.00
36600;BME280;35385;55.668;37.508;2022-12-10T00:32:51;-244345.72;;;50.05;0.00
36600;BME280;35385;55.668;37.508;2022-12-10T00:33:55;-244533.03;;;50.02;0.00
36600;BME280;35385;55.668;37.508;2022-12-10T00:34:56;-244710.81;;;49.99;0.00
36600;BME280;35385;55.668;37.508;2022-12-10T00:36:00;-244731.75;;;49.99;0.00
36600;BME280;35385;55.668;37.508;2022-12-10T00:37:01;-244955.56;;;49.96;0.00
36600;BME280;35385;55.668;37.508;2022-12-10T00:38:01;-245330.03;;;49.91;0.00
36600;BME280;35385;55.668;37.508;2022-12-10T00:39:02;-245643.59;;;49.86;0.00
36600;BME280;35385;55.668;37.508;2022-12-10T00:40:03;-246259.81;;;49.78;0.00
36600;BME280;35385;55.668;37.508;2022-12-10T00:41:04;-246742.97;;;49.70;0.00
36600;BME280;35385;55.668;37.508;2022-12-10T00:42:04;-247107.94;;;49.65;0.00
36600;BME280;35385;55.668;37.508;2022-12-10T00:43:05;-247488.88;;;49.60;0.00
36600;BME280;35385;55.668;37.508;2022-12-10T00:44:06;-247624.13;;;49.58;0.00
36600;BME280;35385;55.668;37.508;2022-12-10T00:45:06;-247624.13;;;49.58;0.00
36600;BME280;35385;55.668;37.508;2022-12-10T00:46:07;-247808.22;;;49.55;0.00
36600;BME280;35385;55.668;37.508;2022-12-10T00:47:07;-247507.56;;;49.60;0.00
36600;BME280;35385;55.668;37.508;2022-12-10T00:48:08;-247803.53;;;49.55;0.00
36600;BME280;35385;55.668;37.508;2022-12-10T00:49:08;-247857.09;;;49.55;0.00
36600;BME280;35385;55.668;37.508;2022-12-10T00:50:09;-247741.94;;;49.56;0.00
36600;BME280;35385;55.668;37.508;2022-12-10T00:51:11;-247437.31;;;49.61;0.00
36600;BME280;35385;55.668;37.508;2022-12-10T00:52:11;-246981.16;;;49.67;0.00
36600;BME280;35385;55.668;37.508;2022-12-10T00:53:12;-246848.78;;;49.69;0.00
36600;BME280;35385;55.668;37.508;2022-12-10T00:54:12;-246576.53;;;49.73;0.00
36600;BME280;35385;55.668;37.508;2022-12-10T00:55:12;-246414.63;;;49.76;0.00
36600;BME280;35385;55.668;37.508;2022-12-10T00:56:14;-246311.25;;;49.78;0.00
36600;BME280;35385;55.668;37.508;2022-12-10T00:57:15;-246329.91;;;49.78;0.00
36600;BME280;35385;55.668;37.508;2022-12-10T00:58:15;-246918.91;;;49.69;0.00
36600;BME280;35385;55.668;37.508;2022-12-10T00:59:15;-247357.44;;;49.63;0.00
36600;BME280;35385;55.668;37.508;2022-12-10T01:00:16;-247431.13;;;49.62;0.00
36600;BME280;35385;55.668;37.508;2022-12-10T01:01:33;-247689.53;;;49.58;0.00
36600;BME280;35385;55.668;37.508;2022-12-10T01:02:33;-247033.25;;;49.68;0.00
36600;BME280;35385;55.668;37.508;2022-12-10T01:03:34;-246606.69;;;49.74;0.00
36600;BME280;35385;55.668;37.508;2022-12-10T01:04:34;-246529.34;;;49.75;0.00
36600;BME280;35385;55.668;37.508;2022-12-10T01:05:35;-246701.88;;;49.72;0.00
36600;BME280;35385;55.668;37.508;2022-12-10T01:06:48;-246827.06;;;49.70;0.00
36600;BME280;35385;55.668;37.508;2022-12-10T01:07:50;-247142.97;;;49.66;0.00
36600;BME280;35385;55.668;37.508;2022-12-10T01:08:50;-247289.72;;;49.64;0.00
36600;BME280;35385;55.668;37.508;2022-12-10T01:09:51;-247640.59;;;49.59;0.00
36600;BME280;35385;55.668;37.508;2022-12-10T01:10:54;-247931.84;;;49.55;0.00
36600;BME280;35385;55.668;37.508;2022-12-10T01:11:55;-248136.94;;;49.52;0.00
36600;BME280;35385;55.668;37.508;2022-12-10T01:12:56;-247878.31;;;49.55;0.00
36600;BME280;35385;55.668;37.508;2022-12-10T01:13:57;-247435.81;;;49.62;0.00
36600;BME280;35385;55.668;37.508;2022-12-10T01:14:57;-247339.50;;;49.63;0.00
36600;BME280;35385;55.668;37.508;2022-12-10T01:16:00;-247023.94;;;49.68;0.00
36600;BME280;35385;55.668;37.508;2022-12-10T01:17:01;-247084.47;;;49.67;0.00
36600;BME280;35385;55.668;37.508;2022-12-10T01:18:04;-247210.78;;;49.65;0.00
36600;BME280;35385;55.668;37.508;2022-12-10T01:19:05;-246791.84;;;49.71;0.00
36600;BME280;35385;55.668;37.508;2022-12-10T01:20:06;-246367.28;;;49.78;0.00
36600;BME280;35385;55.668;37.508;2022-12-10T01:21:07;-246240.47;;;49.79;0.00
36600;BME280;35385;55.668;37.508;2022-12-10T01:22:08;-245981.91;;;49.83;0.00
36600;BME280;35385;55.668;37.508;2022-12-10T01:23:08;-246040.75;;;49.82;0.00
36600;BME280;35385;55.668;37.508;2022-12-10T01:24:09;-246456.63;;;49.76;0.00
36600;BME280;35385;55.668;37.508;2022-12-10T01:25:09;-246684.63;;;49.73;0.00
36600;BME280;35385;55.668;37.508;2022-12-10T01:26:11;-246948.78;;;49.69;0.00
36600;BME280;35385;55.668;37.508;2022-12-10T01:27:12;-247320.84;;;49.63;0.00
36600;BME280;35385;55.668;37.508;2022-12-10T01:28:12;-247752.47;;;49.57;0.00
36600;BME280;35385;55.668;37.508;2022-12-10T01:29:12;-248105.97;;;49.52;0.00
36600;BME280;35385;55.668;37.508;2022-12-10T01:30:13;-248213.75;;;49.51;0.00
36600;BME280;35385;55.668;37.508;2022-12-10T01:31:14;-248281.19;;;49.50;0.00
36600;BME280;35385;55.668;37.508;2022-12-10T01:32:15;-248232.44;;;49.51;0.00
36600;BME280;35385;55.668;37.508;2022-12-10T01:33:16;-248571.13;;;49.46;0.00
36600;BME280;35385;55.668;37.508;2022-12-10T01:34:16;-248657.44;;;49.45;0.00
36600;BME280;35385;55.668;37.508;2022-12-10T01:35:16;-248580.75;;;49.46;0.00
36600;BME280;35385;55.668;37.508;2022-12-10T01:36:21;-248557.41;;;49.46;0.00
36600;BME280;35385;55.668;37.508;2022-12-10T01:37:21;-248290.91;;;49.50;0.00
36600;BME280;35385;55.668;37.508;2022-12-10T01:38:22;-248386.72;;;49.48;0.00
36600;BME280;35385;55.668;37.508;2022-12-10T01:39:22;-248508.75;;;49.47;0.00
36600;BME280;35385;55.668;37.508;2022-12-10T01:40:23;-248213.75;;;49.51;0.00
36600;BME280;35385;55.668;37.508;2022-12-10T01:41:25;-248085.53;;;49.53;0.00
36600;BME280;35385;55.668;37.508;2022-12-10T01:42:26;-248262.50;;;49.50;0.00
36600;BME280;35385;55.668;37.508;2022-12-10T01:43:27;-248382.03;;;49.48;0.00
36600;BME280;35385;55.668;37.508;2022-12-10T01:45:27;-248504.06;;;49.47;0.00
36600;BME280;35385;55.668;37.508;2022-12-10T01:46:29;-248446.06;;;49.48;0.00
36600;BME280;35385;55.668;37.508;2022-12-10T01:47:30;-248403.66;;;49.48;0.00
36600;BME280;35385;55.668;37.508;2022-12-10T01:48:30;-248339.66;;;49.49;0.00
36600;BME280;35385;55.668;37.508;2022-12-10T01:49:34;-248436.69;;;49.48;0.00
36600;BME280;35385;55.668;37.508;2022-12-10T01:50:35;-248571.44;;;49.46;0.00
36600;BME280;35385;55.668;37.508;2022-12-10T01:51:37;-248879.84;;;49.41;0.00
36600;BME280;35385;55.668;37.508;2022-12-10T01:52:37;-248044.38;;;49.53;0.00
36600;BME280;35385;55.668;37.508;2022-12-10T01:53:38;-247999.34;;;49.54;0.00
36600;BME280;35385;55.668;37.508;2022-12-10T01:54:41;-247873.63;;;49.55;0.00
36600;BME280;35385;55.668;37.508;2022-12-10T01:56:43;-247807.38;;;49.56;0.00
36600;BME280;35385;55.668;37.508;2022-12-10T01:57:44;-247816.69;;;49.56;0.00
36600;BME280;35385;55.668;37.508;2022-12-10T01:58:45;-247873.63;;;49.55;0.00
36600;BME280;35385;55.668;37.508;2022-12-10T01:59:50;-247894.06;;;49.55;0.00
36600;BME280;35385;55.668;37.508;2022-12-10T02:03:21;-248368.03;;;49.48;0.00
36600;BME280;35385;55.668;37.508;2022-12-10T02:06:01;-249289.72;;;49.35;25.03
36600;BME280;35385;55.668;37.508;2022-12-10T02:07:11;-249470.94;;;49.33;40.12
36600;BME280;35385;55.668;37.508;2022-12-10T02:08:18;-249678.09;;;49.29;58.57
36600;BME280;35385;55.668;37.508;2022-12-10T02:15:21;-250965.09;;;49.10;100.00
36600;BME280;35385;55.668;37.508;2022-12-10T02:16:26;-250770.97;;;49.14;100.00
36600;BME280;35385;55.668;37.508;2022-12-10T02:17:49;-250926.59;;;49.11;100.00
36600;BME280;35385;55.668;37.508;2022-12-10T02:18:55;-251106.19;;;49.09;100.00
36600;BME280;35385;55.668;37.508;2022-12-10T02:20:09;-251173.94;;;49.08;100.00
36600;BME280;35385;55.668;37.508;2022-12-10T02:21:13;-251327.91;;;49.06;100.00
36600;BME280;35385;55.668;37.508;2022-12-10T02:22:15;-251537.53;;;49.02;100.00
36600;BME280;35385;55.668;37.508;2022-12-10T02:23:23;-251546.91;;;49.02;100.00
36600;BME280;35385;55.668;37.508;2022-12-10T02:24:26;-251422.25;;;49.04;100.00
36600;BME280;35385;55.668;37.508;2022-12-10T02:26:02;-251701.81;;;49.00;100.00
36600;BME280;35385;55.668;37.508;2022-12-10T02:27:05;-251758.78;;;48.99;100.00
36600;BME280;35385;55.668;37.508;2022-12-10T02:29:27;-252101.50;;;48.94;0.00
36600;BME280;35385;55.668;37.508;2022-12-10T02:30:29;-252360.19;;;48.90;0.00
36600;BME280;35385;55.668;37.508;2022-12-10T02:31:31;-252532.78;;;48.88;0.00
36600;BME280;35385;55.668;37.508;2022-12-10T02:32:35;-252621.78;;;48.86;0.00
36600;BME280;35385;55.668;37.508;2022-12-10T02:33:37;-252392.59;;;48.90;0.00
36600;BME280;35385;55.668;37.508;2022-12-10T02:34:43;-251967.88;;;48.96;0.00
36600;BME280;35385;55.668;37.508;2022-12-10T02:35:46;-251617.91;;;49.02;100.00
36600;BME280;35385;55.668;37.508;2022-12-10T02:36:50;-251565.56;;;49.02;100.00
36600;BME280;35385;55.668;37.508;2022-12-10T02:37:53;-250809.63;;;49.13;100.00
36600;BME280;35385;55.668;37.508;2022-12-10T02:38:56;-250828.28;;;49.13;100.00
36600;BME280;35385;55.668;37.508;2022-12-10T02:39:57;-251201.97;;;49.08;100.00
36600;BME280;35385;55.668;37.508;2022-12-10T02:41:01;-251263.78;;;49.07;100.00
36600;BME280;35385;55.668;37.508;2022-12-10T02:42:02;-251690.16;;;49.01;100.00
36600;BME280;35385;55.668;37.508;2022-12-10T02:43:04;-251316.19;;;49.06;100.00
36600;BME280;35385;55.668;37.508;2022-12-10T02:44:05;-251071.13;;;49.10;100.00
36600;BME280;35385;55.668;37.508;2022-12-10T02:45:07;-250896.13;;;49.12;100.00
36600;BME280;35385;55.668;37.508;2022-12-10T02:46:08;-251124.88;;;49.09;100.00
36600;BME280;35385;55.668;37.508;2022-12-10T02:47:09;-251066.44;;;49.10;100.00
36600;BME280;35385;55.668;37.508;2022-12-10T02:48:09;-250771.06;;;49.14;100.00
36600;BME280;35385;55.668;37.508;2022-12-10T02:49:10;-250481.91;;;49.18;100.00
36600;BME280;35385;55.668;37.508;2022-12-10T02:50:11;-250593.19;;;49.17;100.00
36600;BME280;35385;55.668;37.508;2022-12-10T02:51:14;-250543.94;;;49.17;100.00
36600;BME280;35385;55.668;37.508;2022-12-10T02:52:15;-250307.19;;;49.21;100.00
36600;BME280;35385;55.668;37.508;2022-12-10T02:53:18;-250557.94;;;49.17;100.00
36600;BME280;35385;55.668;37.508;2022-12-10T02:56:42;-249827.13;;;49.28;71.23
36600;BME280;35385;55.668;37.508;2022-12-10T03:00:09;-250375.19;;;49.20;100.00
36600;BME280;35385;55.668;37.508;2022-12-10T03:01:19;-250452.59;;;49.19;100.00
36600;BME280;35385;55.668;37.508;2022-12-10T03:03:25;-250933.53;;;49.12;100.00
36600;BME280;35385;55.668;37.508;2022-12-10T03:03:59;-250875.03;;;49.13;100.00
36600;BME280;35385;55.668;37.508;2022-12-10T03:05:02;-250982.66;;;49.11;100.00
36600;BME280;35385;55.668;37.508;2022-12-10T03:06:22;-251287.13;;;49.07;100.00
36600;BME280;35385;55.668;37.508;2022-12-10T03:07:37;-251650.63;;;49.02;100.00
36600;BME280;35385;55.668;37.508;2022-12-10T03:08:46;-251699.47;;;49.01;100.00
36600;BME280;35385;55.668;37.508;2022-12-10T03:09:56;-251655.28;;;49.02;100.00
36600;BME280;35385;55.668;37.508;2022-12-10T03:11:15;-250870.34;;;49.13;100.00
36600;BME280;35385;55.668;37.508;2022-12-10T03:12:21;-249930.03;;;49.28;74.98
36600;BME280;35385;55.668;37.508;2022-12-10T03:13:23;-251287.13;;;49.07;100.00
36600;BME280;35385;55.668;37.508;2022-12-10T03:14:30;-251277.78;;;49.07;100.00
36600;BME280;35385;55.668;37.508;2022-12-10T03:15:33;-250723.09;;;49.15;100.00
36600;BME280;35385;55.668;37.508;2022-12-10T03:16:35;-250463.22;;;49.19;100.00
36600;BME280;35385;55.668;37.508;2022-12-10T03:17:36;-250316.50;;;49.21;100.00
36600;BME280;35385;55.668;37.508;2022-12-10T03:18:37;-250259.06;;;49.22;100.00
36600;BME280;35385;55.668;37.508;2022-12-10T03:19:43;-250311.81;;;49.21;100.00
36600;BME280;35385;55.668;37.508;2022-12-10T03:20:45;-249827.13;;;49.28;72.81
36600;BME280;35385;55.668;37.508;2022-12-10T03:21:46;-249345.78;;;49.35;31.19
36600;BME280;35385;55.668;37.508;2022-12-10T03:22:47;-249391.66;;;49.34;35.65
36600;BME280;35385;55.668;37.508;2022-12-10T03:23:49;-249288.03;;;49.36;26.09
36600;BME280;35385;55.668;37.508;2022-12-10T03:24:50;-249548.47;;;49.32;49.02
36600;BME280;35385;55.668;37.508;2022-12-10T03:25:51;-249768.25;;;49.29;67.25
36600;BME280;35385;55.668;37.508;2022-12-10T03:26:52;-249786.94;;;49.29;67.17
36600;BME280;35385;55.668;37.508;2022-12-10T03:27:53;-249576.66;;;49.32;50.81
36600;BME280;35385;55.668;37.508;2022-12-10T03:29:00;-249513.00;;;49.33;45.63
36600;BME280;35385;55.668;37.508;2022-12-10T03:30:02;-249396.34;;;49.34;34.81
36600;BME280;35385;55.668;37.508;2022-12-10T03:31:03;-249396.34;;;49.34;35.04
36600;BME280;35385;55.668;37.508;2022-12-10T03:32:04;-249845.94;;;49.28;74.79
36600;BME280;35385;55.668;37.508;2022-12-10T03:33:05;-250240.38;;;49.22;100.00
36600;BME280;35385;55.668;37.508;2022-12-10T03:34:06;-250092.66;;;49.24;94.87
36600;BME280;35385;55.668;37.508;2022-12-10T03:35:07;-249886.00;;;49.27;76.75
36600;BME280;35385;55.668;37.508;2022-12-10T03:36:08;-250178.25;;;49.23;100.00
36600;BME280;35385;55.668;37.508;2022-12-10T03:37:08;-250240.38;;;49.22;100.00
36600;BME280;35385;55.668;37.508;2022-12-10T03:38:09;-250602.56;;;49.17;100.00
36600;BME280;35385;55.668;37.508;2022-12-10T03:39:10;-250973.31;;;49.11;100.00
36600;BME280;35385;55.668;37.508;2022-12-10T03:40:10;-251517.91;;;49.03;100.00
36600;BME280;35385;55.668;37.508;2022-12-10T03:41:12;-251593.63;;;49.02;100.00
36600;BME280;35385;55.668;37.508;2022-12-10T03:42:12;-250379.88;;;49.20;100.00
36600;BME280;35385;55.668;37.508;2022-12-10T03:43:13;-250424.53;;;49.19;100.00
36600;BME280;35385;55.668;37.508;2022-12-10T03:44:13;-250182.94;;;49.23;100.00
36600;BME280;35385;55.668;37.508;2022-12-10T03:45:26;-249948.22;;;49.26;82.60
36600;BME280;35385;55.668;37.508;2022-12-10T03:46:27;-250134.78;;;49.24;97.99
36600;BME280;35385;55.668;37.508;2022-12-10T03:47:28;-250010.44;;;49.25;87.22
36600;BME280;35385;55.668;37.508;2022-12-10T03:48:28;-249634.31;;;49.31;56.24
36600;BME280;35385;55.668;37.508;2022-12-10T03:49:29;-249881.31;;;49.27;76.88
36600;BME280;35385;55.668;37.508;2022-12-10T03:50:29;-249876.63;;;49.27;77.17
36600;BME280;35385;55.668;37.508;2022-12-10T03:51:29;-249890.66;;;49.27;77.17
36600;BME280;35385;55.668;37.508;2022-12-10T03:52:30;-249763.59;;;49.29;66.50
36600;BME280;35385;55.668;37.508;2022-12-10T03:53:30;-249836.59;;;49.28;74.35
36600;BME280;35385;55.668;37.508;2022-12-10T03:54:31;-249744.91;;;49.29;66.39
36600;BME280;35385;55.668;37.508;2022-12-10T03:55:31;-249729.47;;;49.29;64.05
36600;BME280;35385;55.668;37.508;2022-12-10T03:56:32;-249691.94;;;49.30;61.19
36600;BME280;35385;55.668;37.508;2022-12-10T03:57:33;-249817.81;;;49.28;71.36
36600;BME280;35385;55.668;37.508;2022-12-10T03:58:34;-249788.38;;;49.29;69.70
36600;BME280;35385;55.668;37.508;2022-12-10T03:59:34;-249754.22;;;49.29;66.39
36600;BME280;35385;55.668;37.508;2022-12-10T04:00:34;-249634.31;;;49.31;55.83
36600;BME280;35385;55.668;37.508;2022-12-10T04:01:35;-249102.75;;;49.39;7.88
36600;BME280;35385;55.668;37.508;2022-12-10T04:02:35;-249088.69;;;49.39;8.26
36600;BME280;35385;55.668;37.508;2022-12-10T04:03:36;-248898.53;;;49.41;0.00
36600;BME280;35385;55.668;37.508;2022-12-10T04:04:37;-249026.19;;;49.40;2.70
36600;BME280;35385;55.668;37.508;2022-12-10T04:05:37;-248840.66;;;49.42;0.00
36600;BME280;35385;55.668;37.508;2022-12-10T04:06:38;-249208.97;;;49.37;18.25
36600;BME280;35385;55.668;37.508;2022-12-10T04:07:39;-249754.22;;;49.29;65.33
36600;BME280;35385;55.668;37.508;2022-12-10T04:08:39;-249758.91;;;49.29;64.94
36600;BME280;35385;55.668;37.508;2022-12-10T04:09:40;-249444.69;;;49.33;38.71
36600;BME280;35385;55.668;37.508;2022-12-10T04:10:40;-248952.75;;;49.41;0.00
36600;BME280;35385;55.668;37.508;2022-12-10T04:11:41;-248854.66;;;49.42;0.00
36600;BME280;35385;55.668;37.508;2022-12-10T04:12:41;-248736.66;;;49.44;0.00
36600;BME280;35385;55.668;37.508;2022-12-10T04:13:42;-248599.50;;;49.46;0.00
36600;BME280;35385;55.668;37.508;2022-12-10T04:15:01;-248746.03;;;49.44;0.00
36600;BME280;35385;55.668;37.508;2022-12-10T04:16:21;-248722.66;;;49.44;0.00
36600;BME280;35385;55.668;37.508;2022-12-10T04:17:27;-248749.72;;;49.44;0.00
36600;BME280;35385;55.668;37.508;2022-12-10T04:18:27;-248845.28;;;49.42;0.00
36600;BME280;35385;55.668;37.508;2022-12-10T04:19:28;-248898.53;;;49.41;0.00
36600;BME280;35385;55.668;37.508;2022-12-10T04:20:28;-248785.25;;;49.43;0.00
36600;BME280;35385;55.668;37.508;2022-12-10T04:21:47;-248849.97;;;49.42;0.00
36600;BME280;35385;55.668;37.508;2022-12-10T04:23:07;-248889.16;;;49.41;0.00
36600;BME280;35385;55.668;37.508;2022-12-10T04:24:27;-248893.84;;;49.41;0.00
36600;BME280;35385;55.668;37.508;2022-12-10T04:25:47;-249440.00;;;49.33;37.30
36600;BME280;35385;55.668;37.508;2022-12-10T04:27:07;-249783.69;;;49.29;66.84
36600;BME280;35385;55.668;37.508;2022-12-10T04:28:08;-249962.34;;;49.26;82.05
36600;BME280;35385;55.668;37.508;2022-12-10T04:29:08;-250106.78;;;49.24;94.84
36600;BME280;35385;55.668;37.508;2022-12-10T04:30:10;-249924.84;;;49.26;79.52
36600;BME280;35385;55.668;37.508;2022-12-10T04:31:10;-249827.25;;;49.28;72.48
36600;BME280;35385;55.668;37.508;2022-12-10T04:32:11;-249987.06;;;49.25;84.74
36600;BME280;35385;55.668;37.508;2022-12-10T04:33:11;-250472.53;;;49.18;100.00
36600;BME280;35385;55.668;37.508;2022-12-10T04:34:12;-251066.53;;;49.10;100.00
36600;BME280;35385;55.668;37.508;2022-12-10T04:35:12;-251574.94;;;49.02;100.00
36600;BME280;35385;55.668;37.508;2022-12-10T04:36:12;-251911.28;;;48.98;0.00
36600;BME280;35385;55.668;37.508;2022-12-10T04:37:13;-251765.78;;;49.00;100.00
36600;BME280;35385;55.668;37.508;2022-12-10T04:38:13;-251183.38;;;49.08;100.00
36600;BME280;35385;55.668;37.508;2022-12-10T04:39:14;-250851.66;;;49.13;100.00
36600;BME280;35385;55.668;37.508;2022-12-10T04:40:15;-250689.19;;;49.16;100.00
36600;BME280;35385;55.668;37.508;2022-12-10T04:41:15;-250639.94;;;49.16;100.00
36600;BME280;35385;55.668;37.508;2022-12-10T04:42:16;-250914.84;;;49.12;100.00
36600;BME280;35385;55.668;37.508;2022-12-10T04:43:16;-250611.88;;;49.17;100.00
36600;BME280;35385;55.668;37.508;2022-12-10T04:44:17;-250799.06;;;49.14;100.00
36600;BME280;35385;55.668;37.508;2022-12-10T04:45:18;-250471.28;;;49.19;100.00
36600;BME280;35385;55.668;37.508;2022-12-10T04:46:18;-250491.25;;;49.18;100.00
36600;BME280;35385;55.668;37.508;2022-12-10T04:47:18;-250875.03;;;49.13;100.00
36600;BME280;35385;55.668;37.508;2022-12-10T04:48:19;-250865.66;;;49.13;100.00
36600;BME280;35385;55.668;37.508;2022-12-10T04:49:19;-250845.75;;;49.14;100.00
36600;BME280;35385;55.668;37.508;2022-12-10T04:50:19;-250553.25;;;49.17;100.00
36600;BME280;35385;55.668;37.508;2022-12-10T04:51:20;-250299.03;;;49.21;100.00
36600;BME280;35385;55.668;37.508;2022-12-10T04:52:20;-250162.84;;;49.24;96.44
36600;BME280;35385;55.668;37.508;2022-12-10T04:53:20;-250249.66;;;49.22;100.00
36600;BME280;35385;55.668;37.508;2022-12-10T04:54:22;-250339.91;;;49.21;100.00
36600;BME280;35385;55.668;37.508;2022-12-10T04:55:22;-250339.91;;;49.21;100.00
36600;BME280;35385;55.668;37.508;2022-12-10T04:56:23;-250376.47;;;49.21;100.00
36600;BME280;35385;55.668;37.508;2022-12-10T04:57:23;-251122.53;;;49.10;100.00
36600;BME280;35385;55.668;37.508;2022-12-10T04:58:24;-251424.66;;;49.05;100.00
36600;BME280;35385;55.668;37.508;2022-12-10T04:59:24;-251545.94;;;49.03;100.00
36600;BME280;35385;55.668;37.508;2022-12-10T05:00:24;-251372.25;;;49.06;100.00
36600;BME280;35385;55.668;37.508;2022-12-10T05:01:25;-251508.72;;;49.04;100.00
36600;BME280;35385;55.668;37.508;2022-12-10T05:02:26;-251690.34;;;49.01;100.00
36600;BME280;35385;55.668;37.508;2022-12-10T05:03:26;-251842.69;;;48.99;0.00
36600;BME280;35385;55.668;37.508;2022-12-10T05:04:26;-252195.72;;;48.94;0.00
36600;BME280;35385;55.668;37.508;2022-12-10T05:05:27;-252588.84;;;48.88;0.00
36600;BME280;35385;55.668;37.508;2022-12-10T05:06:27;-252453.28;;;48.90;0.00
36600;BME280;35385;55.668;37.508;2022-12-10T05:07:27;-252612.25;;;48.88;0.00
36600;BME280;35385;55.668;37.508;2022-12-10T05:08:28;-252100.78;;;48.95;0.00
36600;BME280;35385;55.668;37.508;2022-12-10T05:09:29;-251746.22;;;49.01;100.00
36600;BME280;35385;55.668;37.508;2022-12-10T05:10:29;-251793.84;;;49.00;100.00
36600;BME280;35385;55.668;37.508;2022-12-10T05:11:32;-252042.66;;;48.96;0.00
36600;BME280;35385;55.668;37.508;2022-12-10T05:12:33;-252223.75;;;48.94;0.00
36600;BME280;35385;55.668;37.508;2022-12-10T05:13:33;-252205.09;;;48.94;0.00
36600;BME280;35385;55.668;37.508;2022-12-10T05:14:33;-251965.84;;;48.97;0.00
36600;BME280;35385;55.668;37.508;2022-12-10T05:15:37;-251805.53;;;48.99;100.00
36600;BME280;35385;55.668;37.508;2022-12-10T05:16:37;-251358.25;;;49.06;100.00
36600;BME280;35385;55.668;37.508;2022-12-10T05:17:38;-251478.31;;;49.04;100.00
36600;BME280;35385;55.668;37.508;2022-12-10T05:18:38;-251779.84;;;49.00;100.00
36600;BME280;35385;55.668;37.508;2022-12-10T05:19:39;-251956.50;;;48.97;0.00
36600;BME280;35385;55.668;37.508;2022-12-10T05:20:39;-251659.97;;;49.02;100.00
36600;BME280;35385;55.668;37.508;2022-12-10T05:21:39;-251451.69;;;49.05;100.00
36600;BME280;35385;55.668;37.508;2022-12-10T05:22:58;-251018.69;;;49.11;100.00
36600;BME280;35385;55.668;37.508;2022-12-10T05:24:17;-250933.53;;;49.12;100.00
36600;BME280;35385;55.668;37.508;2022-12-10T05:25:18;-251009.38;;;49.11;100.00
36600;BME280;35385;55.668;37.508;2022-12-10T05:26:21;-251075.88;;;49.10;100.00
36600;BME280;35385;55.668;37.508;2022-12-10T05:27:22;-250751.16;;;49.15;100.00
36600;BME280;35385;55.668;37.508;2022-12-10T05:28:23;-250216.97;;;49.22;100.00
36600;BME280;35385;55.668;37.508;2022-12-10T05:29:23;-249855.28;;;49.28;73.26
36600;BME280;35385;55.668;37.508;2022-12-10T05:30:23;-250069.25;;;49.25;91.08
36600;BME280;35385;55.668;37.508;2022-12-10T05:31:27;-250173.56;;;49.23;100.00
36600;BME280;35385;55.668;37.508;2022-12-10T05:32:28;-250087.97;;;49.24;93.09
36600;BME280;35385;55.668;37.508;2022-12-10T05:33:28;-250059.88;;;49.25;90.21
36600;BME280;35385;55.668;37.508;2022-12-10T05:34:29;-250001.06;;;49.25;85.24
36600;BME280;35385;55.668;37.508;2022-12-10T05:35:29;-249634.31;;;49.31;53.01
36600;BME280;35385;55.668;37.508;2022-12-10T05:36:30;-249682.56;;;49.30;58.81